createdAt,value
2022-07-27T00:01:44.425Z,10.50
2022-07-27T00:04:18.994Z,11.13
2022-07-27T00:06:45.988Z,10.57
2022-07-27T00:09:13.124Z,10.60
2022-07-27T00:11:40.020Z,9.25
2022-07-27T00:14:06.730Z,8.75
2022-07-27T00:16:33.686Z,9.35
2022-07-27T00:19:01.023Z,9.80
2022-07-27T00:21:27.818Z,9.93
2022-07-27T00:23:55.119Z,11.30
2022-07-27T00:26:21.967Z,9.27
2022-07-27T00:28:49.341Z,11.60
2022-07-27T00:31:16.911Z,9.02
2022-07-27T00:33:43.713Z,9.30
2022-07-27T00:36:11.008Z,11.25
2022-07-27T00:38:37.921Z,10.45
2022-07-27T00:41:05.007Z,10.40
2022-07-27T00:43:46.459Z,7.82
2022-07-27T00:46:13.158Z,8.52
2022-07-27T00:48:39.969Z,8.60
2022-07-27T00:51:07.043Z,7.70
2022-07-27T00:53:35.476Z,10.93
2022-07-27T00:56:02.150Z,9.35
2022-07-27T00:58:29.601Z,9.50
2022-07-27T01:00:56.340Z,10.38
2022-07-27T01:03:23.354Z,10.05
2022-07-27T01:05:57.895Z,11.35
2022-07-27T01:08:25.331Z,11.63
2022-07-27T01:10:52.840Z,10.57
2022-07-27T01:13:19.687Z,7.78
2022-07-27T01:15:46.434Z,9.05
2022-07-27T01:18:29.927Z,11.30
2022-07-27T01:20:57.913Z,8.10
2022-07-27T01:23:25.493Z,9.52
2022-07-27T01:25:52.516Z,7.85
2022-07-27T01:28:19.320Z,10.38
2022-07-27T01:30:46.124Z,10.43
2022-07-27T01:33:12.863Z,9.43
2022-07-27T01:35:40.512Z,12.45
2022-07-27T01:38:09.094Z,14.25
2022-07-27T01:40:37.012Z,9.05
2022-07-27T01:43:07.206Z,12.15
2022-07-27T01:45:34.089Z,10.88
2022-07-27T01:48:01.191Z,7.63
2022-07-27T01:50:28.078Z,11.55
2022-07-27T01:52:54.725Z,10.43
2022-07-27T01:55:21.436Z,12.80
2022-07-27T01:57:48.348Z,12.25
2022-07-27T02:00:15.330Z,15.27
2022-07-27T02:02:42.576Z,11.35
2022-07-27T02:05:13.025Z,12.45
2022-07-27T02:07:40.814Z,18.30
2022-07-27T02:10:08.582Z,10.07
2022-07-27T02:12:38.231Z,10.93
2022-07-27T02:15:17.649Z,11.48
2022-07-27T02:17:46.739Z,11.05
2022-07-27T02:20:17.080Z,13.02
2022-07-27T02:22:44.476Z,16.20
2022-07-27T02:25:12.713Z,13.70
2022-07-27T02:27:40.609Z,9.00
2022-07-27T02:30:08.137Z,12.98
2022-07-27T02:32:35.197Z,11.52
2022-07-27T02:35:03.045Z,10.45
2022-07-27T02:37:45.148Z,9.90
2022-07-27T02:40:12.764Z,15.23
2022-07-27T02:42:39.479Z,13.52
2022-07-27T02:45:06.691Z,16.60
2022-07-27T02:47:34.821Z,12.60
2022-07-27T02:50:02.341Z,14.45
2022-07-27T02:52:29.071Z,13.65
2022-07-27T02:54:55.810Z,7.82
2022-07-27T02:57:22.522Z,9.23
2022-07-27T02:59:49.249Z,9.43
2022-07-27T03:02:16.142Z,7.63
2022-07-27T03:04:42.852Z,17.35
2022-07-27T03:07:09.580Z,9.90
2022-07-27T03:09:36.289Z,10.27
2022-07-27T03:12:03.717Z,8.43
2022-07-27T03:14:30.438Z,10.57
2022-07-27T03:16:57.168Z,8.07
2022-07-27T03:19:29.721Z,11.07
2022-07-27T03:21:57.002Z,11.95
2022-07-27T03:24:23.681Z,14.07
2022-07-27T03:26:50.352Z,15.82
2022-07-27T03:29:17.132Z,13.57
2022-07-27T03:31:45.554Z,9.80
2022-07-27T03:34:13.760Z,18.75
2022-07-27T03:36:40.516Z,10.93
2022-07-27T03:39:07.538Z,17.58
2022-07-27T03:41:34.267Z,19.50
2022-07-27T03:44:00.948Z,11.55
2022-07-27T03:46:27.733Z,10.38
2022-07-27T03:48:54.547Z,19.17
2022-07-27T03:51:21.897Z,18.85
2022-07-27T03:53:48.733Z,19.83
2022-07-27T03:56:15.477Z,18.27
2022-07-27T03:58:42.424Z,16.08
2022-07-27T04:01:09.188Z,19.98
2022-07-27T04:03:37.347Z,10.98
2022-07-27T04:06:05.610Z,15.48
2022-07-27T04:08:32.404Z,16.90
2022-07-27T04:10:59.085Z,19.50
2022-07-27T04:13:26.925Z,19.35
2022-07-27T04:15:56.119Z,15.63
2022-07-27T04:18:22.847Z,14.50
2022-07-27T04:20:49.561Z,14.70
2022-07-27T04:23:16.247Z,20.02
2022-07-27T04:25:42.953Z,18.50
2022-07-27T04:28:10.533Z,15.75
2022-07-27T04:30:37.352Z,28.17
2022-07-27T04:33:05.309Z,20.42
2022-07-27T04:35:32.019Z,25.65
2022-07-27T04:37:59.794Z,23.60
2022-07-27T04:40:29.816Z,28.90
2022-07-27T04:42:56.542Z,22.02
2022-07-27T04:45:23.275Z,23.67
2022-07-27T04:47:50.149Z,27.63
2022-07-27T04:50:16.968Z,33.95
2022-07-27T04:52:43.760Z,28.45
2022-07-27T04:55:10.779Z,23.33
2022-07-27T04:57:37.654Z,33.80
2022-07-27T05:00:05.650Z,34.00
2022-07-27T05:02:32.482Z,26.33
2022-07-27T05:05:00.111Z,22.98
2022-07-27T05:07:27.069Z,23.80
2022-07-27T05:09:53.964Z,32.50
2022-07-27T05:12:20.703Z,29.35
2022-07-27T05:14:47.479Z,21.42
2022-07-27T05:17:14.215Z,20.55
2022-07-27T05:19:41.138Z,19.50
2022-07-27T05:22:09.068Z,18.83
2022-07-27T05:24:35.828Z,21.45
2022-07-27T05:27:02.529Z,23.42
2022-07-27T05:29:29.249Z,19.15
2022-07-27T05:31:55.987Z,16.88
2022-07-27T05:34:22.704Z,16.63
2022-07-27T05:36:49.475Z,14.93
2022-07-27T05:39:16.440Z,14.68
2022-07-27T05:41:43.352Z,12.63
2022-07-27T05:44:10.322Z,18.27
2022-07-27T05:46:37.096Z,15.40
2022-07-27T05:49:04.857Z,18.23
2022-07-27T05:51:31.933Z,15.10
2022-07-27T05:53:59.452Z,14.18
2022-07-27T05:56:26.566Z,17.90
2022-07-27T05:58:54.009Z,13.50
2022-07-27T06:01:21.182Z,12.30
2022-07-27T06:03:48.019Z,13.10
2022-07-27T06:06:33.303Z,12.27
2022-07-27T06:09:02.256Z,11.95
2022-07-27T06:11:29.034Z,14.35
2022-07-27T06:13:56.150Z,10.07
2022-07-27T06:16:23.624Z,15.00
2022-07-27T06:18:50.806Z,11.13
2022-07-27T06:21:17.675Z,12.35
2022-07-27T06:23:44.466Z,13.95
2022-07-27T06:26:11.219Z,15.30
2022-07-27T06:28:37.929Z,11.30
2022-07-27T06:31:06.697Z,13.45
2022-07-27T06:33:33.629Z,13.23
2022-07-27T06:36:01.572Z,9.70
2022-07-27T06:38:29.229Z,12.50
2022-07-27T06:40:56.496Z,14.63
2022-07-27T06:43:25.342Z,9.73
2022-07-27T06:45:54.284Z,14.55
2022-07-27T06:48:21.482Z,13.20
2022-07-27T06:50:49.416Z,12.32
2022-07-27T06:53:20.808Z,9.48
2022-07-27T06:55:48.347Z,13.25
2022-07-27T06:58:15.060Z,13.63
2022-07-27T07:00:42.086Z,10.95
2022-07-27T07:03:09.097Z,9.70
2022-07-27T07:05:43.420Z,11.05
2022-07-27T07:08:12.108Z,12.27
2022-07-27T07:10:40.088Z,13.38
2022-07-27T07:13:08.034Z,13.73
2022-07-27T07:15:35.686Z,13.68
2022-07-27T07:18:03.824Z,8.88
2022-07-27T07:20:31.076Z,12.20
2022-07-27T07:22:58.538Z,10.82
2022-07-27T07:25:25.774Z,9.35
2022-07-27T07:27:52.638Z,11.80
2022-07-27T07:30:20.096Z,12.80
2022-07-27T07:32:46.814Z,12.00
2022-07-27T07:35:13.639Z,10.18
2022-07-27T07:37:40.459Z,9.75
2022-07-27T07:40:39.926Z,9.10
2022-07-27T07:43:01.319Z,12.10
2022-07-27T07:45:29.559Z,8.60
2022-07-27T07:47:57.028Z,9.32
2022-07-27T07:50:24.472Z,10.52
2022-07-27T07:52:52.687Z,13.70
2022-07-27T07:55:21.047Z,11.23
2022-07-27T07:57:48.696Z,9.95
2022-07-27T08:00:18.445Z,9.02
2022-07-27T08:02:49.478Z,7.72
2022-07-27T08:05:17.282Z,10.90
2022-07-27T08:07:45.126Z,8.60
2022-07-27T08:10:13.085Z,10.55
2022-07-27T08:12:42.516Z,10.32
2022-07-27T08:15:10.230Z,10.40
2022-07-27T08:17:37.044Z,8.98
2022-07-27T08:20:05.277Z,14.80
2022-07-27T08:22:33.647Z,12.35
2022-07-27T08:25:00.369Z,9.88
2022-07-27T08:27:27.193Z,8.20
2022-07-27T08:29:54.145Z,8.77
2022-07-27T08:32:21.572Z,10.15
2022-07-27T08:34:48.421Z,14.43
2022-07-27T08:37:15.738Z,11.93
2022-07-27T08:44:56.259Z,10.30
2022-07-27T08:47:23.454Z,9.00
2022-07-27T08:49:50.298Z,9.40
2022-07-27T08:52:17.182Z,8.60
2022-07-27T08:54:44.079Z,10.25
2022-07-27T08:57:11.454Z,13.23
2022-07-27T08:59:38.296Z,10.18
2022-07-27T09:02:09.588Z,10.27
2022-07-27T09:04:36.346Z,10.52
2022-07-27T09:07:03.081Z,8.77
2022-07-27T09:09:44.948Z,11.60
2022-07-27T09:12:11.695Z,9.38
2022-07-27T09:14:40.279Z,12.20
2022-07-27T09:20:19.551Z,11.68
2022-07-27T09:22:54.375Z,9.68
2022-07-27T09:25:52.590Z,9.45
2022-07-27T09:28:13.554Z,11.68
2022-07-27T09:30:44.023Z,11.10
2022-07-27T09:33:10.989Z,9.40
2022-07-27T09:35:38.047Z,9.35
2022-07-27T09:38:21.807Z,9.40
2022-07-27T09:40:58.563Z,10.77
2022-07-27T09:46:12.282Z,10.52
2022-07-27T09:48:39.178Z,11.73
2022-07-27T09:51:55.915Z,11.50
2022-07-27T09:53:59.842Z,9.20
2022-07-27T09:56:32.809Z,9.55
2022-07-27T09:59:19.511Z,10.43
2022-07-27T10:01:52.535Z,15.77
2022-07-27T10:04:21.234Z,27.33
2022-07-27T10:07:02.338Z,54.80
2022-07-27T10:09:31.162Z,34.25
2022-07-27T10:11:58.498Z,21.80
2022-07-27T10:14:25.833Z,43.92
2022-07-27T10:16:53.045Z,20.75
2022-07-27T10:19:28.325Z,13.18
2022-07-27T10:21:54.989Z,11.20
2022-07-27T10:24:36.622Z,13.50
2022-07-27T10:27:21.244Z,11.77
2022-07-27T10:29:51.404Z,12.82
2022-07-27T10:32:45.032Z,8.63
2022-07-27T10:35:34.883Z,10.05
2022-07-27T10:38:10.197Z,12.10
2022-07-27T10:40:37.177Z,12.05
2022-07-27T10:43:20.981Z,8.77
2022-07-27T10:46:02.154Z,13.02
2022-07-27T10:48:37.779Z,8.45
2022-07-27T10:51:06.714Z,13.63
2022-07-27T10:53:55.051Z,8.15
2022-07-27T10:56:50.532Z,10.63
2022-07-27T11:00:06.854Z,10.70
2022-07-27T11:02:41.173Z,8.25
2022-07-27T11:05:29.081Z,12.27
2022-07-27T11:08:34.721Z,7.50
2022-07-27T11:10:48.200Z,11.23
2022-07-27T11:13:17.070Z,9.18
2022-07-27T11:15:55.857Z,8.15
2022-07-27T11:18:31.104Z,11.73
2022-07-27T11:21:33.983Z,9.50
2022-07-27T11:24:03.949Z,7.57
2022-07-27T11:26:33.680Z,11.18
2022-07-27T11:29:00.370Z,11.68
2022-07-27T11:31:53.002Z,8.45
2022-07-27T11:34:14.682Z,9.75
2022-07-27T11:36:52.541Z,10.43
2022-07-27T11:42:21.059Z,13.05
2022-07-27T11:44:51.086Z,11.07
2022-07-27T11:47:19.707Z,11.25
2022-07-27T11:49:47.145Z,12.02
2022-07-27T11:52:17.151Z,10.68
2022-07-27T11:54:43.896Z,13.60
2022-07-27T11:57:12.690Z,12.63
2022-07-27T11:59:43.573Z,9.82
2022-07-27T12:02:17.820Z,14.63
2022-07-27T12:04:46.788Z,9.93
2022-07-27T12:07:31.002Z,9.23
2022-07-27T12:10:07.162Z,12.73
2022-07-27T12:12:37.904Z,8.50
2022-07-27T12:15:42.784Z,15.63
2022-07-27T12:18:00.489Z,10.73
2022-07-27T12:20:35.074Z,11.77
2022-07-27T12:23:07.404Z,11.07
2022-07-27T12:25:35.413Z,12.48
2022-07-27T12:28:25.684Z,12.98
2022-07-27T12:30:52.669Z,14.88
2022-07-27T12:33:38.639Z,7.85
2022-07-27T12:36:07.193Z,11.95
2022-07-27T12:38:40.776Z,11.95
2022-07-27T12:41:07.763Z,14.95
2022-07-27T12:43:53.114Z,8.57
2022-07-27T12:46:19.852Z,9.40
2022-07-27T12:48:46.622Z,10.27
2022-07-27T12:51:13.407Z,9.35
2022-07-27T12:53:40.154Z,11.05
2022-07-27T12:56:10.031Z,10.35
2022-07-27T12:58:38.182Z,10.43
2022-07-27T13:01:05.591Z,12.98
2022-07-27T13:03:33.748Z,9.43
2022-07-27T13:06:05.830Z,10.18
2022-07-27T13:08:37.597Z,12.88
2022-07-27T13:11:04.338Z,11.07
2022-07-27T13:13:31.023Z,11.15
2022-07-27T13:15:57.727Z,9.18
2022-07-27T13:18:24.437Z,9.02
2022-07-27T13:20:54.214Z,10.30
2022-07-27T13:23:21.202Z,9.00
2022-07-27T13:25:47.929Z,11.15
2022-07-27T13:28:14.633Z,10.85
2022-07-27T13:30:41.421Z,13.23
2022-07-27T13:33:08.570Z,10.38
2022-07-27T13:35:35.619Z,10.55
2022-07-27T13:38:02.465Z,9.82
2022-07-27T13:40:29.506Z,10.07
2022-07-27T13:42:56.284Z,14.50
2022-07-27T13:45:23.016Z,13.30
2022-07-27T13:47:49.816Z,18.95
2022-07-27T13:50:19.761Z,9.38
2022-07-27T13:52:49.829Z,13.90
2022-07-27T13:55:17.362Z,13.85
2022-07-27T13:57:44.774Z,15.02
2022-07-27T14:00:12.190Z,10.13
2022-07-27T14:02:39.928Z,13.60
2022-07-27T14:05:09.736Z,12.00
2022-07-27T14:07:40.094Z,10.15
2022-07-27T14:10:26.033Z,14.23
2022-07-27T14:12:58.724Z,9.40
2022-07-27T14:15:25.929Z,10.80
2022-07-27T14:17:52.646Z,10.85
2022-07-27T14:20:19.362Z,15.68
2022-07-27T14:22:47.583Z,12.77
2022-07-27T14:25:14.877Z,10.35
2022-07-27T14:27:41.669Z,11.48
2022-07-27T14:30:09.201Z,9.43
2022-07-27T14:32:36.658Z,10.85
2022-07-27T14:35:04.946Z,12.68
2022-07-27T14:37:31.882Z,9.68
2022-07-27T14:39:58.619Z,9.68
2022-07-27T14:42:25.333Z,12.02
2022-07-27T14:44:52.654Z,10.18
2022-07-27T14:47:19.683Z,12.63
2022-07-27T14:49:46.627Z,10.90
2022-07-27T14:52:13.718Z,10.48
2022-07-27T14:54:44.154Z,17.40
2022-07-27T14:57:11.236Z,13.10
2022-07-27T14:59:38.748Z,13.95
2022-07-27T15:02:06.209Z,11.68
2022-07-27T15:04:33.535Z,9.07
2022-07-27T15:07:00.812Z,11.45
2022-07-27T15:09:30.546Z,12.07
2022-07-27T15:11:58.484Z,10.68
2022-07-27T15:14:25.518Z,12.07
2022-07-27T15:16:53.723Z,13.55
2022-07-27T15:19:20.452Z,12.85
2022-07-27T15:21:50.192Z,15.02
2022-07-27T15:24:16.969Z,15.38
2022-07-27T15:26:43.634Z,11.25
2022-07-27T15:29:14.528Z,14.65
2022-07-27T15:31:41.906Z,13.52
2022-07-27T15:34:08.711Z,12.00
2022-07-27T15:36:37.697Z,8.05
2022-07-27T15:39:09.864Z,11.23
2022-07-27T15:41:37.826Z,12.68
2022-07-27T15:44:04.821Z,12.25
2022-07-27T15:46:32.696Z,14.70
2022-07-27T15:49:00.876Z,8.98
2022-07-27T15:51:27.640Z,16.40
2022-07-27T15:53:54.623Z,12.88
2022-07-27T15:56:21.347Z,12.52
2022-07-27T15:58:48.075Z,10.57
2022-07-27T16:01:14.898Z,12.60
2022-07-27T16:03:41.786Z,14.52
2022-07-27T16:06:08.599Z,14.40
2022-07-27T16:08:35.517Z,14.65
2022-07-27T16:11:02.238Z,14.10
2022-07-27T16:13:28.930Z,14.82
2022-07-27T16:16:14.459Z,9.15
2022-07-27T16:18:41.289Z,14.10
2022-07-27T16:21:08.261Z,12.30
2022-07-27T16:23:35.102Z,11.15
2022-07-27T16:26:05.020Z,9.60
2022-07-27T16:28:34.233Z,12.48
2022-07-27T16:31:01.118Z,10.20
2022-07-27T16:33:28.022Z,14.15
2022-07-27T16:35:54.802Z,11.93
2022-07-27T16:38:21.516Z,12.20
2022-07-27T16:40:48.293Z,13.57
2022-07-27T16:43:16.069Z,13.07
2022-07-27T16:45:42.797Z,10.80
2022-07-27T16:48:10.011Z,14.10
2022-07-27T16:50:36.725Z,11.52
2022-07-27T16:53:03.557Z,12.13
2022-07-27T16:55:30.389Z,15.00
2022-07-27T16:57:57.135Z,15.65
2022-07-27T17:00:23.928Z,20.27
2022-07-27T17:02:50.823Z,14.00
2022-07-27T17:05:17.629Z,10.85
2022-07-27T17:07:45.790Z,13.80
2022-07-27T17:10:12.629Z,16.90
2022-07-27T17:12:53.543Z,14.23
2022-07-27T17:15:21.050Z,19.02
2022-07-27T17:17:47.735Z,14.18
2022-07-27T17:20:14.447Z,13.93
2022-07-27T17:22:41.193Z,15.10
2022-07-27T17:25:08.194Z,20.70
2022-07-27T17:27:36.157Z,9.27
2022-07-27T17:30:04.755Z,14.95
2022-07-27T17:32:31.594Z,12.02
2022-07-27T17:34:58.318Z,11.32
2022-07-27T17:37:25.130Z,15.23
2022-07-27T17:39:51.905Z,13.07
2022-07-27T17:42:18.747Z,11.00
2022-07-27T17:44:45.431Z,10.10
2022-07-27T17:47:12.137Z,10.30
2022-07-27T17:49:38.911Z,12.27
2022-07-27T17:52:07.053Z,12.10
2022-07-27T17:54:34.035Z,12.23
2022-07-27T17:57:00.718Z,12.23
2022-07-27T17:59:37.697Z,12.20
2022-07-27T18:02:05.453Z,11.45
2022-07-27T18:04:38.924Z,12.75
2022-07-27T18:07:06.257Z,18.08
2022-07-27T18:09:33.693Z,11.18
2022-07-27T18:12:00.610Z,11.40
2022-07-27T18:14:27.464Z,20.90
2022-07-27T18:16:54.414Z,14.15
2022-07-27T18:19:21.262Z,10.50
2022-07-27T18:21:47.993Z,11.77
2022-07-27T18:24:14.927Z,12.60
2022-07-27T18:26:41.672Z,9.90
2022-07-27T18:29:08.707Z,12.25
2022-07-27T18:31:35.528Z,13.48
2022-07-27T18:34:02.863Z,10.02
2022-07-27T18:36:29.760Z,11.25
2022-07-27T18:38:57.873Z,11.10
2022-07-27T18:41:25.089Z,10.05
2022-07-27T18:43:52.014Z,14.73
2022-07-27T18:46:22.532Z,12.45
2022-07-27T18:48:50.046Z,14.77
2022-07-27T18:51:17.148Z,13.93
2022-07-27T18:53:46.746Z,12.23
2022-07-27T18:56:13.598Z,10.40
2022-07-27T18:58:41.087Z,17.15
2022-07-27T19:01:09.654Z,11.95
2022-07-27T19:03:37.434Z,11.35
2022-07-27T19:06:07.491Z,12.75
2022-07-27T19:08:35.301Z,14.43
2022-07-27T19:11:02.017Z,13.27
2022-07-27T19:13:28.758Z,10.95
2022-07-27T19:15:55.600Z,14.50
2022-07-27T19:18:25.105Z,14.13
2022-07-27T19:20:53.021Z,11.70
2022-07-27T19:23:19.871Z,11.52
2022-07-27T19:25:47.143Z,16.60
2022-07-27T19:28:16.108Z,14.82
2022-07-27T19:30:43.076Z,12.60
2022-07-27T19:33:10.450Z,11.95
2022-07-27T19:35:38.510Z,10.68
2022-07-27T19:38:05.282Z,13.40
2022-07-27T19:40:47.480Z,11.43
2022-07-27T19:43:17.522Z,9.95
2022-07-27T19:45:44.333Z,11.85
2022-07-27T19:48:11.827Z,11.82
2022-07-27T19:50:38.751Z,17.05
2022-07-27T19:53:05.504Z,10.70
2022-07-27T19:55:32.271Z,12.25
2022-07-27T19:57:59.145Z,9.30
2022-07-27T20:00:25.942Z,12.35
2022-07-27T20:02:52.975Z,13.88
2022-07-27T20:05:20.358Z,10.10
2022-07-27T20:07:47.695Z,13.02
2022-07-27T20:10:14.465Z,13.02
2022-07-27T20:12:41.329Z,11.25
2022-07-27T20:15:08.616Z,12.25
2022-07-27T20:17:40.539Z,10.02
2022-07-27T20:20:09.126Z,13.35
2022-07-27T20:22:36.111Z,12.40
2022-07-27T20:25:03.214Z,10.07
2022-07-27T20:27:30.067Z,12.15
2022-07-27T20:29:56.780Z,11.68
2022-07-27T20:32:23.530Z,10.65
2022-07-27T20:34:50.227Z,11.00
2022-07-27T20:37:17.068Z,10.15
2022-07-27T20:39:44.261Z,13.52
2022-07-27T20:42:11.199Z,16.30
2022-07-27T20:44:38.016Z,11.10
2022-07-27T20:47:06.344Z,11.20
2022-07-27T20:49:34.367Z,15.32
2022-07-27T20:52:01.805Z,10.82
2022-07-27T20:54:29.407Z,13.93
2022-07-27T20:56:56.978Z,12.40
2022-07-27T20:59:24.135Z,14.02
2022-07-27T21:01:52.197Z,14.68
2022-07-27T21:04:19.279Z,10.68
2022-07-27T21:06:46.559Z,10.27
2022-07-27T21:09:14.597Z,12.85
2022-07-27T21:11:41.536Z,12.55
2022-07-27T21:14:09.664Z,14.35
2022-07-27T21:16:37.130Z,11.82
2022-07-27T21:19:04.142Z,11.20
2022-07-27T21:21:30.898Z,11.32
2022-07-27T21:24:17.090Z,9.50
2022-07-27T21:26:48.740Z,14.77
2022-07-27T21:29:16.163Z,13.20
2022-07-27T21:31:46.709Z,11.45
2022-07-27T21:34:16.973Z,11.48
2022-07-27T21:39:10.904Z,14.32
2022-07-27T21:41:38.729Z,11.02
2022-07-27T21:44:05.703Z,12.43
2022-07-27T21:46:32.475Z,14.75
2022-07-27T21:48:59.349Z,11.20
2022-07-27T21:51:26.092Z,10.68
2022-07-27T21:53:52.883Z,12.82
2022-07-27T21:56:19.635Z,12.00
2022-07-27T21:58:46.553Z,11.82
2022-07-27T22:01:14.492Z,15.85
2022-07-27T22:03:41.994Z,10.70
2022-07-27T22:06:10.187Z,15.88
2022-07-27T22:08:37.033Z,17.15
2022-07-27T22:11:04.083Z,14.65
2022-07-27T22:13:30.926Z,11.90
2022-07-27T22:15:57.761Z,15.35
2022-07-27T22:18:24.551Z,10.95
2022-07-27T22:20:51.265Z,13.82
2022-07-27T22:23:18.175Z,10.60
2022-07-27T22:25:44.968Z,15.50
2022-07-27T22:28:11.678Z,10.93
2022-07-27T22:30:40.238Z,11.00
2022-07-27T22:33:08.107Z,13.65
2022-07-27T22:35:35.021Z,10.98
2022-07-27T22:38:01.791Z,16.73
2022-07-27T22:40:28.679Z,11.68
2022-07-27T22:42:55.453Z,11.40
2022-07-27T22:45:22.688Z,14.57
2022-07-27T22:47:49.465Z,14.40
2022-07-27T22:50:18.126Z,13.57
2022-07-27T22:52:45.380Z,12.93
2022-07-27T22:55:12.104Z,9.75
2022-07-27T22:57:38.849Z,13.30
2022-07-27T23:00:06.829Z,14.63
2022-07-27T23:05:00.979Z,12.65
2022-07-27T23:07:27.838Z,12.18
2022-07-27T23:09:56.983Z,13.70
2022-07-27T23:12:24.436Z,10.00
2022-07-27T23:14:51.259Z,10.30
2022-07-27T23:17:17.997Z,10.80
2022-07-27T23:19:44.662Z,14.68
2022-07-27T23:22:11.619Z,10.70
2022-07-27T23:24:41.035Z,11.18
2022-07-27T23:27:08.344Z,11.85
2022-07-27T23:29:35.004Z,16.13
2022-07-27T23:32:03.486Z,12.73
2022-07-27T23:34:30.229Z,11.60
2022-07-27T23:36:56.959Z,11.85
2022-07-27T23:39:23.697Z,11.98
2022-07-27T23:41:50.518Z,10.80
2022-07-27T23:44:17.758Z,15.10
2022-07-27T23:46:44.626Z,11.18
2022-07-27T23:49:11.740Z,11.98
2022-07-27T23:51:38.446Z,15.98
2022-07-27T23:54:05.279Z,10.40
2022-07-27T23:56:32.112Z,13.00
2022-07-27T23:58:58.817Z,13.15
